Time;durP1;ratioP1;P1;durP2;ratioP2;P2;SDS_P1;SDS_P2;PMS_P1;PMS_P2;Temp;Humidity;BMP_temperature;BMP_pressure;BME280_temperature;BME280_humidity;BME280_pressure;Samples;Min_cycle;Max_cycle;Signal;HPM_P1;HPM_P2
2022/05/01 00:01:40;;;;;;;18.07;11.73;;;7.10;99.90;;;;;;5136227;27;20043;-68
2022/05/01 00:04:06;;;;;;;13.27;10.97;;;7.10;99.90;;;;;;5135687;27;20051;-68
2022/05/01 00:06:33;;;;;;;13.00;11.33;;;7.00;99.90;;;;;;5136003;27;20043;-68
2022/05/01 00:09:04;;;;;;;13.00;10.25;;;7.00;99.90;;;;;;5135819;27;20715;-68
2022/05/01 00:11:30;;;;;;;13.30;10.43;;;7.00;99.90;;;;;;5135311;27;20046;-68
2022/05/01 00:14:00;;;;;;;14.87;11.20;;;6.90;99.90;;;;;;5135052;27;20047;-68
2022/05/01 00:16:26;;;;;;;14.18;11.25;;;7.00;99.90;;;;;;5135479;27;20051;-68
2022/05/01 00:18:52;;;;;;;13.77;11.20;;;6.90;99.90;;;;;;5135812;27;20432;-68
2022/05/01 00:21:17;;;;;;;14.40;11.03;;;6.90;99.90;;;;;;5135395;27;20039;-68
2022/05/01 00:23:43;;;;;;;14.57;10.87;;;6.90;99.90;;;;;;5135718;27;20054;-68
2022/05/01 00:26:09;;;;;;;16.13;11.88;;;6.90;99.90;;;;;;5135402;27;20043;-68
2022/05/01 00:28:36;;;;;;;14.67;11.93;;;6.90;99.90;;;;;;5134924;27;20043;-68
2022/05/01 00:31:06;;;;;;;15.90;12.40;;;6.80;99.90;;;;;;5135496;27;20049;-68
2022/05/01 00:36:26;;;;;;;17.90;14.30;;;6.70;99.90;;;;;;5135111;27;20049;-68
2022/05/01 00:38:56;;;;;;;18.65;14.70;;;6.70;99.90;;;;;;5135397;27;20039;-68
2022/05/01 00:41:23;;;;;;;18.38;13.20;;;6.70;99.90;;;;;;5135033;27;20047;-68
2022/05/01 00:44:25;;;;;;;17.15;12.63;;;6.60;99.90;;;;;;5135236;27;20039;-68
2022/05/01 00:46:52;;;;;;;14.93;12.68;;;6.60;99.90;;;;;;5071678;28;20045;-68
2022/05/01 00:49:19;;;;;;;14.88;13.23;;;6.50;99.90;;;;;;5122085;27;20459;-68
2022/05/01 00:51:53;;;;;;;14.43;11.43;;;6.50;99.90;;;;;;5134882;27;20063;-68
2022/05/01 00:54:22;;;;;;;14.48;12.15;;;6.50;99.90;;;;;;5133719;27;20475;-68
2022/05/01 00:56:50;;;;;;;15.02;12.35;;;6.50;99.90;;;;;;5134991;27;20043;-68
2022/05/01 00:59:17;;;;;;;15.48;12.60;;;6.40;99.90;;;;;;5133318;27;20043;-68
2022/05/01 01:01:44;;;;;;;14.80;13.02;;;6.40;99.90;;;;;;5135117;27;20039;-68
2022/05/01 01:04:10;;;;;;;18.67;15.68;;;6.50;99.90;;;;;;5134570;27;20100;-69
2022/05/01 01:06:37;;;;;;;22.08;19.15;;;6.40;99.90;;;;;;5134805;27;20043;-68
2022/05/01 01:09:04;;;;;;;22.05;18.00;;;6.40;99.90;;;;;;5134610;27;20049;-68
2022/05/01 01:11:29;;;;;;;23.00;18.20;;;6.40;99.90;;;;;;5133211;27;20092;-68
2022/05/01 01:13:55;;;;;;;26.53;21.67;;;6.30;99.90;;;;;;5134761;27;20050;-68
2022/05/01 01:16:21;;;;;;;26.03;21.87;;;6.40;99.90;;;;;;5134332;27;20083;-68
2022/05/01 01:18:47;;;;;;;32.27;24.43;;;6.30;99.90;;;;;;5134537;27;20356;-68
2022/05/01 01:21:13;;;;;;;26.87;22.03;;;6.30;99.90;;;;;;5134347;27;20058;-69
2022/05/01 01:23:40;;;;;;;25.60;20.23;;;6.20;99.90;;;;;;5134755;27;20399;-68
2022/05/01 01:26:07;;;;;;;21.95;17.30;;;6.20;99.90;;;;;;5134372;27;20050;-68
2022/05/01 01:28:35;;;;;;;16.55;14.70;;;6.20;99.90;;;;;;5133040;27;20490;-68
2022/05/01 01:33:53;;;;;;;16.98;13.82;;;6.10;99.90;;;;;;5134368;27;20047;-68
2022/05/01 01:36:24;;;;;;;14.38;12.70;;;6.10;99.90;;;;;;5133962;27;20043;-68
2022/05/01 01:38:50;;;;;;;14.88;13.00;;;6.10;99.90;;;;;;5132442;27;20055;-68
2022/05/01 01:41:21;;;;;;;16.47;14.13;;;6.10;99.90;;;;;;5132647;27;20043;-69
2022/05/01 01:43:48;;;;;;;16.20;13.85;;;6.10;99.90;;;;;;5134331;27;20039;-68
2022/05/01 01:46:14;;;;;;;15.57;12.02;;;6.10;99.90;;;;;;5133924;27;20051;-69
2022/05/01 01:48:40;;;;;;;15.97;12.67;;;6.00;99.90;;;;;;5134039;27;20387;-68
2022/05/01 01:51:06;;;;;;;15.57;12.37;;;6.00;99.90;;;;;;5134017;27;20059;-68
2022/05/01 01:53:34;;;;;;;13.80;11.93;;;6.00;99.90;;;;;;5133732;27;20296;-68
2022/05/01 01:56:00;;;;;;;15.90;12.80;;;6.00;99.90;;;;;;5133182;27;20051;-68
2022/05/01 01:58:28;;;;;;;14.45;11.90;;;5.90;99.90;;;;;;5133698;27;20043;-68
2022/05/01 02:00:54;;;;;;;14.02;12.38;;;5.90;99.90;;;;;;5133996;27;20047;-68
2022/05/01 02:03:20;;;;;;;16.20;12.23;;;5.90;99.90;;;;;;5133309;28;20511;-69
2022/05/01 02:05:49;;;;;;;13.30;11.47;;;5.90;99.90;;;;;;5133868;28;20126;-68
2022/05/01 02:08:16;;;;;;;16.35;11.73;;;5.90;99.90;;;;;;5133470;28;20504;-72
2022/05/01 02:10:44;;;;;;;14.32;12.07;;;5.90;99.90;;;;;;5132969;28;20043;-68
2022/05/01 02:13:10;;;;;;;14.90;12.73;;;5.80;99.90;;;;;;5133446;28;20039;-68
2022/05/01 02:15:37;;;;;;;14.90;12.52;;;5.80;99.90;;;;;;5133489;27;20128;-68
2022/05/01 02:18:04;;;;;;;16.48;12.45;;;5.70;99.90;;;;;;5133906;28;20066;-68
2022/05/01 02:21:34;;;;;;;13.48;12.02;;;5.70;99.90;;;;;;5133498;28;20514;-68
2022/05/01 02:23:17;;;;;;;14.15;11.68;;;5.70;99.90;;;;;;5133344;28;20127;-71
2022/05/01 02:25:43;;;;;;;15.30;12.48;;;5.70;99.90;;;;;;5132750;28;20079;-68
2022/05/01 02:28:10;;;;;;;15.63;12.37;;;5.60;99.90;;;;;;5132449;28;20075;-68
2022/05/01 02:30:37;;;;;;;14.43;12.40;;;5.60;99.90;;;;;;5133455;28;20058;-68
2022/05/01 02:33:03;;;;;;;15.38;11.60;;;5.50;99.90;;;;;;5133737;27;20372;-68
2022/05/01 02:35:29;;;;;;;14.15;12.35;;;5.50;99.90;;;;;;5133304;28;20046;-68
2022/05/01 02:37:54;;;;;;;15.37;12.00;;;5.40;99.90;;;;;;5132714;28;20114;-68
2022/05/01 02:40:20;;;;;;;15.57;12.47;;;5.40;99.90;;;;;;5133313;28;20047;-69
2022/05/01 02:42:46;;;;;;;14.20;11.73;;;5.40;99.90;;;;;;5133636;28;20125;-68
2022/05/01 02:45:11;;;;;;;14.63;12.53;;;5.40;99.90;;;;;;5133585;28;20046;-68
2022/05/01 02:47:37;;;;;;;14.60;12.90;;;5.30;99.90;;;;;;5132276;28;20039;-68
2022/05/01 02:50:03;;;;;;;15.27;13.17;;;5.40;99.90;;;;;;5132702;27;20046;-68
2022/05/01 02:52:29;;;;;;;15.40;11.35;;;5.30;99.90;;;;;;5137303;27;20067;-68
2022/05/01 02:54:54;;;;;;;14.43;12.23;;;5.40;99.90;;;;;;5137493;27;20061;-68
2022/05/01 02:57:22;;;;;;;14.50;11.77;;;5.40;99.90;;;;;;5137134;27;20043;-69
2022/05/01 02:59:47;;;;;;;13.45;11.73;;;5.40;99.90;;;;;;5137317;27;20040;-68
2022/05/01 03:02:15;;;;;;;14.40;12.47;;;5.40;99.90;;;;;;5137589;27;20475;-68
2022/05/01 03:04:40;;;;;;;15.43;11.85;;;5.30;99.90;;;;;;5136863;27;20047;-68
2022/05/01 03:07:07;;;;;;;14.00;11.60;;;5.30;99.90;;;;;;5137143;27;20050;-68
2022/05/01 03:09:34;;;;;;;14.52;12.23;;;5.30;99.90;;;;;;5136667;27;20046;-68
2022/05/01 03:12:00;;;;;;;13.23;11.38;;;5.40;99.90;;;;;;5137094;27;20043;-68
2022/05/01 03:14:26;;;;;;;13.93;11.18;;;5.40;99.90;;;;;;5136660;27;20043;-69
2022/05/01 03:16:52;;;;;;;13.73;12.23;;;5.30;99.90;;;;;;5137220;27;20050;-68
2022/05/01 03:22:10;;;;;;;13.85;11.60;;;5.20;99.90;;;;;;5137108;27;20086;-68
2022/05/01 03:24:38;;;;;;;13.63;11.88;;;5.20;99.90;;;;;;5136551;27;20050;-68
2022/05/01 03:27:05;;;;;;;13.52;11.10;;;5.20;99.90;;;;;;5135771;27;20051;-68
2022/05/01 03:29:32;;;;;;;14.73;11.35;;;5.20;99.90;;;;;;5136353;27;20095;-68
2022/05/01 03:31:59;;;;;;;14.27;11.80;;;5.20;99.90;;;;;;5136886;27;20050;-68
2022/05/01 03:34:26;;;;;;;16.00;11.98;;;5.20;99.90;;;;;;5136246;27;20046;-68
2022/05/01 03:36:53;;;;;;;15.60;12.68;;;5.10;99.90;;;;;;5136446;27;20051;-68
2022/05/01 03:39:20;;;;;;;16.52;12.38;;;5.00;99.90;;;;;;5136590;27;20054;-68
2022/05/01 03:41:46;;;;;;;15.55;11.90;;;5.10;99.90;;;;;;5136189;27;20548;-68
2022/05/01 03:44:12;;;;;;;17.17;12.77;;;5.00;99.90;;;;;;5136643;27;20047;-68
2022/05/01 03:46:38;;;;;;;15.73;11.53;;;5.00;99.90;;;;;;5136110;27;20122;-68
2022/05/01 03:49:09;;;;;;;14.55;11.85;;;5.10;99.90;;;;;;5136211;27;20058;-68
2022/05/01 03:51:35;;;;;;;15.85;12.07;;;5.00;99.90;;;;;;5136047;27;20411;-68
2022/05/01 03:54:02;;;;;;;13.68;11.80;;;5.00;99.90;;;;;;5135520;27;20398;-68
2022/05/01 03:56:31;;;;;;;14.93;11.90;;;5.00;99.90;;;;;;5135911;27;20086;-68
2022/05/01 03:58:57;;;;;;;15.32;12.13;;;5.00;99.90;;;;;;5136127;27;20494;-68
2022/05/01 04:01:27;;;;;;;13.98;12.10;;;5.00;99.90;;;;;;5135771;27;20042;-68
2022/05/01 04:03:53;;;;;;;14.77;12.15;;;5.00;99.90;;;;;;5135623;27;20483;-68
2022/05/01 04:06:19;;;;;;;13.70;11.43;;;4.90;99.90;;;;;;5135959;27;20130;-68
2022/05/01 04:08:45;;;;;;;14.45;11.60;;;4.90;99.90;;;;;;5135591;27;20058;-68
2022/05/01 04:11:11;;;;;;;15.60;11.85;;;4.90;99.90;;;;;;5135891;27;20047;-68
2022/05/01 04:13:37;;;;;;;13.33;11.67;;;4.90;99.90;;;;;;5135569;27;20043;-68
2022/05/01 04:16:03;;;;;;;14.97;11.37;;;5.00;99.90;;;;;;5117790;27;20066;-68
2022/05/01 04:18:31;;;;;;;15.48;11.98;;;5.00;99.90;;;;;;5135416;27;20280;-69
2022/05/01 04:21:00;;;;;;;14.27;11.15;;;5.00;99.90;;;;;;5135609;27;20043;-68
2022/05/01 04:23:26;;;;;;;13.75;11.40;;;4.90;99.90;;;;;;5135592;27;20083;-68
2022/05/01 04:25:52;;;;;;;13.60;11.50;;;4.90;99.90;;;;;;5134097;27;20043;-68
2022/05/01 04:28:18;;;;;;;14.13;11.55;;;4.90;99.90;;;;;;5135515;27;20085;-68
2022/05/01 04:30:46;;;;;;;14.47;11.63;;;5.00;99.90;;;;;;5134299;27;20514;-68
2022/05/01 04:33:13;;;;;;;14.07;11.60;;;5.00;99.90;;;;;;5135456;27;20122;-68
2022/05/01 04:35:45;;;;;;;16.33;12.95;;;5.10;99.90;;;;;;5135238;27;20055;-68
2022/05/01 04:38:16;;;;;;;15.55;12.43;;;5.10;99.90;;;;;;5135521;27;20043;-68
2022/05/01 04:40:48;;;;;;;16.50;13.07;;;5.10;99.90;;;;;;5134759;27;20403;-68
2022/05/01 04:43:22;;;;;;;17.10;12.88;;;5.10;99.90;;;;;;5134040;27;20115;-68
2022/05/01 04:45:50;;;;;;;15.32;12.27;;;5.10;99.90;;;;;;5134696;27;20050;-68
2022/05/01 04:48:17;;;;;;;16.33;13.60;;;5.10;99.90;;;;;;5135351;27;20107;-68
2022/05/01 04:50:44;;;;;;;15.18;13.55;;;5.10;99.90;;;;;;5133340;27;20106;-68
2022/05/01 04:53:11;;;;;;;16.70;12.93;;;5.10;99.90;;;;;;5135227;27;20199;-68
2022/05/01 04:55:39;;;;;;;13.68;12.02;;;5.10;99.90;;;;;;5134729;27;20047;-68
2022/05/01 04:58:05;;;;;;;14.50;11.73;;;5.20;99.90;;;;;;5135002;27;20051;-68
2022/05/01 05:00:31;;;;;;;16.50;12.63;;;5.20;99.90;;;;;;5133799;27;20077;-68
2022/05/01 05:02:57;;;;;;;14.18;12.68;;;5.30;99.90;;;;;;5134828;27;20060;-68
2022/05/01 05:05:24;;;;;;;15.50;12.47;;;5.40;99.90;;;;;;5134832;27;20047;-68
2022/05/01 05:07:50;;;;;;;16.27;12.75;;;5.40;99.90;;;;;;5134473;27;20363;-68
2022/05/01 05:10:17;;;;;;;15.70;12.20;;;5.50;99.90;;;;;;5134720;27;20146;-68
2022/05/01 05:12:45;;;;;;;15.55;12.30;;;5.60;99.90;;;;;;5134392;27;20087;-68
2022/05/01 05:15:15;;;;;;;15.88;13.80;;;5.60;99.90;;;;;;5133472;27;20122;-68
2022/05/01 05:17:41;;;;;;;15.00;13.00;;;5.70;99.90;;;;;;5133388;27;20065;-68
2022/05/01 05:20:10;;;;;;;14.52;12.93;;;5.70;99.90;;;;;;5134621;27;20095;-68
2022/05/01 05:22:36;;;;;;;14.30;11.73;;;5.80;99.90;;;;;;5132927;27;20364;-69
2022/05/01 05:25:03;;;;;;;13.23;11.63;;;5.90;99.90;;;;;;5134475;27;20046;-68
2022/05/01 05:27:29;;;;;;;13.20;11.20;;;5.90;99.90;;;;;;5134415;27;20046;-68
2022/05/01 05:29:55;;;;;;;10.80;9.70;;;6.00;99.90;;;;;;5133701;27;20849;-68
2022/05/01 05:32:22;;;;;;;10.93;9.32;;;6.10;99.90;;;;;;5134370;27;20095;-68
2022/05/01 05:34:48;;;;;;;10.48;8.82;;;6.20;99.90;;;;;;5133923;27;20039;-68
2022/05/01 05:37:15;;;;;;;10.15;8.90;;;6.30;99.90;;;;;;5133069;27;20549;-68
2022/05/01 05:39:40;;;;;;;9.15;8.15;;;6.40;99.90;;;;;;5133884;27;20047;-69
2022/05/01 05:42:06;;;;;;;8.83;7.90;;;6.50;99.90;;;;;;5133248;27;20390;-68
2022/05/01 05:44:32;;;;;;;9.00;7.30;;;6.60;99.90;;;;;;5132961;27;20035;-68
2022/05/01 05:46:58;;;;;;;8.83;7.93;;;6.70;99.90;;;;;;5133835;27;20070;-68
2022/05/01 05:49:23;;;;;;;9.03;7.60;;;8.00;99.90;;;;;;5134242;27;20488;-68
2022/05/01 05:51:49;;;;;;;7.17;6.47;;;8.20;99.90;;;;;;5133715;27;20514;-68
2022/05/01 05:54:15;;;;;;;8.20;7.10;;;9.30;99.90;;;;;;5134197;27;20043;-68
2022/05/01 05:56:41;;;;;;;9.43;7.10;;;10.60;99.90;;;;;;5132710;27;20111;-69
2022/05/01 05:59:07;;;;;;;8.70;7.57;;;;;;;;;;5133984;27;20054;-69
2022/05/01 06:01:33;;;;;;;6.90;6.00;;;;;;;;;;5133995;27;20043;-69
2022/05/01 06:03:59;;;;;;;8.30;6.30;;;13.40;99.90;;;;;;5132650;27;20324;-69
2022/05/01 06:06:25;;;;;;;6.93;5.33;;;;;;;;;;5133850;27;20636;-69
2022/05/01 06:08:51;;;;;;;6.63;5.10;;;;;;;;;;5132513;28;20051;-69
2022/05/01 06:11:17;;;;;;;8.03;5.43;;;14.90;99.90;;;;;;5133841;28;20313;-69
2022/05/01 06:13:43;;;;;;;6.80;5.27;;;;;;;;;;5133574;27;20316;-69
2022/05/01 06:16:09;;;;;;;7.27;5.57;;;;;;;;;;5133986;28;20074;-69
2022/05/01 06:18:34;;;;;;;6.60;5.17;;;15.10;99.90;;;;;;5133910;28;20306;-69
2022/05/01 06:21:00;;;;;;;6.07;4.80;;;15.40;72.70;;;;;;5133896;28;20780;-69
2022/05/01 06:23:26;;;;;;;6.37;5.27;;;15.70;90.90;;;;;;5134069;27;20078;-69
2022/05/01 06:25:52;;;;;;;8.87;5.33;;;;;;;;;;5135394;27;20386;-69
2022/05/01 06:28:18;;;;;;;7.77;5.60;;;16.30;81.80;;;;;;5137728;27;20092;-69
2022/05/01 06:30:45;;;;;;;7.83;5.50;;;16.60;78.50;;;;;;5137630;27;20285;-69
2022/05/01 06:33:19;;;;;;;7.10;5.37;;;;;;;;;;5137520;27;20435;-69
2022/05/01 06:35:48;;;;;;;7.50;5.47;;;;;;;;;;5137456;27;20051;-69
2022/05/01 06:38:14;;;;;;;6.43;5.03;;;17.20;67.00;;;;;;5138048;27;20051;-69
2022/05/01 06:40:43;;;;;;;7.67;5.43;;;;;;;;;;5136785;27;20064;-69
2022/05/01 06:43:10;;;;;;;7.37;5.43;;;17.90;57.30;;;;;;5137675;27;20130;-69
2022/05/01 06:45:36;;;;;;;5.67;4.73;;;18.20;56.60;;;;;;5137631;27;20123;-69
2022/05/01 06:48:02;;;;;;;6.00;4.80;;;18.30;61.60;;;;;;5136983;27;20582;-69
2022/05/01 06:50:28;;;;;;;6.83;5.40;;;18.40;60.90;;;;;;5137604;27;20080;-69
2022/05/01 06:52:55;;;;;;;8.17;5.20;;;18.60;59.80;;;;;;5137322;27;20063;-69
2022/05/01 06:55:23;;;;;;;6.30;4.40;;;18.70;58.80;;;;;;5136527;27;20094;-69
2022/05/01 06:57:49;;;;;;;7.20;4.70;;;18.90;57.30;;;;;;5136830;27;20571;-69
2022/05/01 07:00:15;;;;;;;7.80;4.97;;;19.00;57.00;;;;;;5137357;27;20130;-69
2022/05/01 07:02:48;;;;;;;6.90;4.83;;;19.20;56.10;;;;;;5137603;27;20058;-68
2022/05/01 07:05:14;;;;;;;6.57;4.90;;;19.40;54.00;;;;;;5137393;27;20051;-68
2022/05/01 07:07:40;;;;;;;6.83;5.10;;;19.40;55.40;;;;;;5136016;27;20130;-68
2022/05/01 07:10:07;;;;;;;7.57;4.63;;;19.50;54.70;;;;;;5135517;27;20047;-69
2022/05/01 07:12:33;;;;;;;6.73;4.13;;;19.60;53.10;;;;;;5136008;27;20093;-69
2022/05/01 07:14:59;;;;;;;6.67;3.37;;;19.70;51.90;;;;;;5136722;27;20043;-71
2022/05/01 07:17:26;;;;;;;6.80;4.13;;;19.90;52.10;;;;;;5137144;27;20398;-70
2022/05/01 07:19:51;;;;;;;7.07;4.03;;;19.90;50.90;;;;;;5135419;27;20479;-70
2022/05/01 07:22:17;;;;;;;7.33;4.70;;;20.10;50.80;;;;;;5136103;27;20047;-69
2022/05/01 07:24:43;;;;;;;7.13;4.27;;;20.00;50.10;;;;;;5136854;27;20534;-69
2022/05/01 07:27:09;;;;;;;7.60;5.30;;;20.00;50.10;;;;;;5136144;27;20042;-69
2022/05/01 07:29:35;;;;;;;8.50;5.20;;;19.90;50.20;;;;;;5136754;27;20051;-69
2022/05/01 07:32:01;;;;;;;8.03;4.70;;;19.70;50.00;;;;;;5136478;27;20373;-69
2022/05/01 07:34:27;;;;;;;6.17;4.30;;;19.60;49.20;;;;;;5135675;27;20047;-69
2022/05/01 07:36:52;;;;;;;7.10;4.20;;;19.50;49.30;;;;;;5133899;27;20092;-70
2022/05/01 07:39:18;;;;;;;6.07;4.60;;;19.00;48.90;;;;;;5136614;27;20118;-69
2022/05/01 07:41:44;;;;;;;6.00;4.30;;;19.00;49.30;;;;;;5136619;27;20051;-69
2022/05/01 07:44:11;;;;;;;6.93;4.17;;;19.00;49.60;;;;;;5136129;27;20035;-68
2022/05/01 07:46:38;;;;;;;8.50;4.93;;;18.80;49.50;;;;;;5135222;27;20494;-68
2022/05/01 07:49:05;;;;;;;7.73;5.07;;;18.40;49.90;;;;;;5136086;27;20062;-68
2022/05/01 07:51:31;;;;;;;7.67;4.80;;;17.70;50.50;;;;;;5136235;27;20047;-68
2022/05/01 07:53:58;;;;;;;6.67;4.57;;;17.30;50.60;;;;;;5135968;27;20043;-68
2022/05/01 07:56:34;;;;;;;7.03;4.63;;;;;;;;;;5136456;27;20058;-68
2022/05/01 07:59:00;;;;;;;8.40;5.47;;;16.50;67.60;;;;;;5134953;27;20130;-69
2022/05/01 08:01:28;;;;;;;7.63;4.90;;;;;;;;;;5136120;27;20068;-68
2022/05/01 08:06:38;;;;;;;7.00;4.78;;;17.40;53.60;;;;;;5136129;27;20095;-69
2022/05/01 08:09:04;;;;;;;6.83;4.83;;;17.40;52.10;;;;;;5135585;27;20035;-70
2022/05/01 08:11:30;;;;;;;6.97;4.50;;;17.60;61.50;;;;;;5136195;27;20039;-69
2022/05/01 08:13:56;;;;;;;6.10;4.40;;;17.20;53.00;;;;;;5134620;27;20055;-69
2022/05/01 08:16:22;;;;;;;7.10;4.80;;;17.00;53.60;;;;;;5136250;27;20039;-68
2022/05/01 08:21:33;;;;;;;6.25;4.05;;;16.20;53.40;;;;;;5135115;27;20137;-69
2022/05/01 08:24:03;;;;;;;6.73;3.73;;;15.90;53.90;;;;;;5135119;27;20039;-69
2022/05/01 08:26:33;;;;;;;4.80;3.53;;;15.80;54.20;;;;;;5134716;27;20550;-68
2022/05/01 08:28:59;;;;;;;6.40;4.10;;;15.70;53.90;;;;;;5135202;27;20078;-69
2022/05/01 08:31:25;;;;;;;6.60;4.27;;;15.80;53.50;;;;;;5134577;27;20047;-68
2022/05/01 08:33:51;;;;;;;6.70;3.90;;;15.90;53.70;;;;;;5135470;27;20103;-68
2022/05/01 08:36:17;;;;;;;6.43;4.10;;;15.70;53.60;;;;;;5133171;27;20043;-68
2022/05/01 08:38:43;;;;;;;8.23;4.60;;;15.80;53.60;;;;;;5133506;27;20047;-68
2022/05/01 08:41:09;;;;;;;6.63;4.50;;;;;;;;;;5134392;27;20131;-69
2022/05/01 08:43:35;;;;;;;7.77;4.30;;;16.10;52.70;;;;;;5134263;27;20047;-68
2022/05/01 08:46:19;;;;;;;7.83;4.03;;;16.20;52.40;;;;;;5135008;27;20046;-68
2022/05/01 08:49:05;;;;;;;6.50;3.60;;;16.20;52.80;;;;;;5133479;27;20054;-69
2022/05/01 08:51:36;;;;;;;5.90;3.63;;;16.20;52.20;;;;;;5135335;27;20480;-68
2022/05/01 08:54:07;;;;;;;6.07;3.60;;;16.20;51.60;;;;;;5134811;27;20452;-69
2022/05/01 08:56:34;;;;;;;6.60;4.00;;;16.20;51.20;;;;;;5135334;27;20050;-69
2022/05/01 08:59:09;;;;;;;6.97;4.50;;;16.20;51.40;;;;;;5134666;27;20533;-69
2022/05/01 09:01:36;;;;;;;5.88;3.88;;;16.10;51.40;;;;;;5134032;27;20126;-69
2022/05/01 09:04:06;;;;;;;8.23;4.30;;;15.80;52.60;;;;;;5133460;27;20058;-68
2022/05/01 09:06:36;;;;;;;7.30;4.43;;;15.60;52.10;;;;;;5135028;27;20184;-68
2022/05/01 09:09:09;;;;;;;5.40;3.47;;;15.50;52.30;;;;;;5134485;27;20039;-67
2022/05/01 09:14:25;;;;;;;7.30;3.70;;;15.40;52.70;;;;;;5134515;27;20106;-67
2022/05/01 09:17:21;;;;;;;6.93;3.83;;;15.50;52.40;;;;;;5134150;27;20043;-69
2022/05/01 09:19:50;;;;;;;7.67;4.20;;;15.40;53.60;;;;;;5133832;27;20449;-67
2022/05/01 09:22:16;;;;;;;7.17;4.20;;;15.50;52.70;;;;;;5133726;27;20035;-67
2022/05/01 09:24:42;;;;;;;7.20;4.10;;;15.50;53.10;;;;;;5134059;27;20407;-68
2022/05/01 09:27:28;;;;;;;8.97;4.47;;;15.50;53.00;;;;;;5133624;27;20039;-68
2022/05/01 09:30:19;;;;;;;9.67;4.10;;;15.50;53.30;;;;;;5131783;27;20294;-67
2022/05/01 09:32:46;;;;;;;7.80;4.27;;;15.50;53.10;;;;;;5133395;27;20111;-68
2022/05/01 09:35:16;;;;;;;7.93;4.67;;;;;;;;;;5133817;27;20031;-68
2022/05/01 09:37:42;;;;;;;7.03;4.27;;;15.30;52.90;;;;;;5134196;27;20039;-67
2022/05/01 09:40:09;;;;;;;7.87;4.27;;;15.30;54.00;;;;;;5133590;27;20039;-67
2022/05/01 09:42:35;;;;;;;8.93;3.70;;;15.30;53.70;;;;;;5132903;27;20039;-67
2022/05/01 09:45:06;;;;;;;7.67;4.50;;;15.10;53.90;;;;;;5133489;27;20122;-68
2022/05/01 09:47:38;;;;;;;6.90;4.27;;;;;;;;;;5131396;27;20183;-67
2022/05/01 09:50:05;;;;;;;7.07;3.90;;;;;;;;;;5134043;27;20047;-67
2022/05/01 09:52:59;;;;;;;7.57;3.97;;;14.90;91.60;;;;;;5134313;27;20055;-67
2022/05/01 09:55:26;;;;;;;7.77;4.80;;;15.10;62.90;;;;;;5133741;27;20116;-67
2022/05/01 09:58:12;;;;;;;7.80;4.03;;;15.10;54.80;;;;;;5134011;27;20046;-68
2022/05/01 10:00:44;;;;;;;7.77;4.33;;;15.20;55.10;;;;;;5133558;27;20039;-68
2022/05/01 10:03:19;;;;;;;6.80;3.70;;;15.00;54.70;;;;;;5133731;27;20138;-68
2022/05/01 10:05:47;;;;;;;7.80;4.53;;;15.10;55.10;;;;;;5133940;27;20475;-68
2022/05/01 10:08:13;;;;;;;6.70;4.73;;;15.20;55.20;;;;;;5133620;27;20415;-66
2022/05/01 10:10:41;;;;;;;6.40;3.80;;;15.30;55.00;;;;;;5133872;27;20083;-66
2022/05/01 10:13:10;;;;;;;9.17;4.07;;;15.30;54.70;;;;;;5133610;27;20082;-66
2022/05/01 10:15:36;;;;;;;6.80;3.83;;;15.40;55.00;;;;;;5132741;28;20423;-68
2022/05/01 10:18:02;;;;;;;5.90;3.87;;;15.40;54.50;;;;;;5133828;27;20539;-68
2022/05/01 10:20:29;;;;;;;9.00;4.50;;;15.40;54.40;;;;;;5133579;27;20391;-68
2022/05/01 10:22:55;;;;;;;6.97;4.10;;;15.20;54.60;;;;;;5132451;28;20062;-66
2022/05/01 10:25:21;;;;;;;5.33;3.50;;;15.30;54.70;;;;;;5133493;28;20424;-70
2022/05/01 10:27:56;;;;;;;6.57;4.33;;;15.30;55.10;;;;;;5133340;27;20054;-67
2022/05/01 10:33:40;;;;;;;8.23;4.20;;;15.30;55.40;;;;;;5133391;28;20129;-65
2022/05/01 10:36:35;;;;;;;6.27;3.87;;;15.50;55.00;;;;;;5132295;28;20051;-68
2022/05/01 10:39:10;;;;;;;7.32;4.10;;;15.60;54.70;;;;;;5133701;28;20050;-66
2022/05/01 10:41:43;;;;;;;7.03;4.40;;;15.70;54.70;;;;;;5133585;28;20174;-66
2022/05/01 10:44:33;;;;;;;7.53;4.37;;;15.80;54.30;;;;;;5132114;28;20372;-66
2022/05/01 10:47:05;;;;;;;6.57;4.20;;;;;;;;;;5132743;28;20051;-68
2022/05/01 10:49:33;;;;;;;7.23;4.33;;;;;;;;;;5133133;28;20043;-69
2022/05/01 10:52:13;;;;;;;7.17;4.30;;;15.80;53.40;;;;;;5133516;28;20132;-69
2022/05/01 10:54:39;;;;;;;8.07;4.47;;;15.80;53.90;;;;;;5133817;28;20137;-69
2022/05/01 10:57:15;;;;;;;6.73;3.83;;;15.80;54.30;;;;;;5133209;28;20130;-69
2022/05/01 10:59:48;;;;;;;7.77;4.70;;;15.90;54.30;;;;;;5133472;28;20043;-69
2022/05/01 11:02:22;;;;;;;5.87;3.80;;;16.00;54.10;;;;;;5133273;28;20049;-69
2022/05/01 11:04:48;;;;;;;6.30;4.00;;;16.10;54.10;;;;;;5133417;28;20051;-69
2022/05/01 11:07:16;;;;;;;6.63;4.20;;;;;;;;;;5133089;28;20445;-69
2022/05/01 11:09:44;;;;;;;6.90;3.77;;;;;;;;;;5133252;28;20100;-69
2022/05/01 11:12:13;;;;;;;7.23;3.90;;;;;;;;;;5134214;27;20043;-70
2022/05/01 11:14:40;;;;;;;6.23;3.87;;;;;;;;;;5136039;27;20100;-68
2022/05/01 11:17:07;;;;;;;6.37;3.60;;;;;;;;;;5136024;27;20069;-70
2022/05/01 11:19:45;;;;;;;6.30;4.27;;;;;;;;;;5136681;27;20122;-68
2022/05/01 11:22:14;;;;;;;6.07;3.93;;;;;;;;;;5117979;27;20050;-70
2022/05/01 11:24:44;;;;;;;7.70;3.93;;;;;;;;;;5136624;27;20122;-70
2022/05/01 11:27:17;;;;;;;6.10;3.70;;;;;;;;;;5136812;27;20047;-70
2022/05/01 11:30:02;;;;;;;6.00;3.30;;;;;;;;;;5136737;27;20043;-70
2022/05/01 11:32:42;;;;;;;7.25;3.60;;;;;;;;;;5136084;27;20490;-71
2022/05/01 11:35:08;;;;;;;7.07;3.70;;;;;;;;;;5135583;27;20054;-69
2022/05/01 11:37:48;;;;;;;6.50;3.23;;;;;;;;;;5136346;27;20051;-71
2022/05/01 11:40:21;;;;;;;6.13;3.63;;;;;;;;;;5136368;27;20510;-70
2022/05/01 11:42:48;;;;;;;5.47;3.40;;;;;;;;;;5136600;27;20047;-70
2022/05/01 11:45:14;;;;;;;6.03;3.67;;;;;;;;;;5136262;27;20051;-72
2022/05/01 11:47:40;;;;;;;5.93;3.33;;;;;;;;;;5136446;27;20058;-70
2022/05/01 11:50:07;;;;;;;6.50;3.80;;;;;;;;;;5135217;27;20487;-69
2022/05/01 11:52:37;;;;;;;5.10;3.20;;;;;;;;;;5135622;27;20503;-73
2022/05/01 11:55:09;;;;;;;6.30;3.47;;;;;;;;;;5136418;27;20047;-67
2022/05/01 12:03:13;;;;;;;6.03;3.50;;;;;;;;;;5136154;27;20094;-67
2022/05/01 12:05:43;;;;;;;5.63;3.07;;;;;;;;;;5135883;27;20047;-67
2022/05/01 12:08:09;;;;;;;6.33;3.20;;;16.10;79.40;;;;;;5136038;27;20090;-67
2022/05/01 12:10:43;;;;;;;7.30;3.63;;;15.80;51.80;;;;;;5135631;27;20541;-68
2022/05/01 12:13:23;;;;;;;5.78;3.63;;;15.80;52.10;;;;;;5135996;27;20050;-67
2022/05/01 12:15:50;;;;;;;5.87;3.30;;;15.80;51.50;;;;;;5135703;27;20501;-68
2022/05/01 12:18:17;;;;;;;7.97;4.53;;;15.70;51.40;;;;;;5135665;27;20121;-68
2022/05/01 12:20:43;;;;;;;5.93;3.13;;;15.60;51.40;;;;;;5135860;27;20054;-67
2022/05/01 12:23:17;;;;;;;6.13;3.73;;;15.50;52.10;;;;;;5134666;27;20281;-67
2022/05/01 12:25:46;;;;;;;6.30;3.53;;;15.50;52.50;;;;;;5135213;27;20265;-74
2022/05/01 12:28:15;;;;;;;5.67;3.30;;;15.50;52.70;;;;;;5114468;27;20054;-69
2022/05/01 12:30:42;;;;;;;5.67;3.10;;;15.50;52.10;;;;;;5134824;27;20099;-69
2022/05/01 12:33:26;;;;;;;6.77;2.93;;;15.50;52.20;;;;;;5133871;27;20440;-69
2022/05/01 12:35:53;;;;;;;6.43;3.30;;;15.50;52.10;;;;;;5132546;27;20130;-68
2022/05/01 12:38:20;;;;;;;4.80;2.87;;;15.40;52.30;;;;;;5135280;27;20372;-71
2022/05/01 12:43:50;;;;;;;6.40;3.60;;;15.60;51.80;;;;;;5091898;28;20343;-70
2022/05/01 12:46:26;;;;;;;9.07;3.83;;;15.40;51.50;;;;;;5091963;28;20285;-70
2022/05/01 12:48:52;;;;;;;5.20;2.83;;;15.30;51.90;;;;;;5114997;27;20055;-72
2022/05/01 12:51:18;;;;;;;4.97;2.87;;;15.30;52.20;;;;;;5135242;27;20391;-68
2022/05/01 12:53:44;;;;;;;6.10;3.17;;;15.30;51.90;;;;;;5134902;27;20288;-68
2022/05/01 12:56:20;;;;;;;5.47;2.90;;;15.20;51.80;;;;;;5134958;27;20376;-68
2022/05/01 12:58:46;;;;;;;5.43;3.30;;;15.20;53.80;;;;;;5134225;27;20047;-68
2022/05/01 13:01:23;;;;;;;5.93;3.30;;;15.20;54.40;;;;;;5135146;27;20280;-68
2022/05/01 13:03:49;;;;;;;5.70;2.93;;;15.20;54.80;;;;;;5134243;27;20288;-67
2022/05/01 13:06:17;;;;;;;5.00;2.90;;;15.20;54.80;;;;;;5135042;27;20307;-68
2022/05/01 13:08:46;;;;;;;6.53;3.10;;;15.20;54.80;;;;;;5134727;27;20438;-67
2022/05/01 13:11:26;;;;;;;5.33;3.00;;;15.20;54.90;;;;;;5135096;27;20273;-67
2022/05/01 13:14:05;;;;;;;4.50;2.50;;;15.20;54.90;;;;;;5135105;27;20273;-67
2022/05/01 13:16:30;;;;;;;7.10;3.17;;;15.30;54.60;;;;;;5134760;27;20283;-67
2022/05/01 13:19:08;;;;;;;7.30;2.77;;;15.30;55.00;;;;;;5133941;27;20659;-67
2022/05/01 13:21:55;;;;;;;4.60;2.80;;;15.30;53.50;;;;;;5133697;27;20051;-67
2022/05/01 13:24:29;;;;;;;5.23;3.17;;;15.30;53.00;;;;;;5134172;27;20291;-67
2022/05/01 13:26:59;;;;;;;5.47;2.83;;;15.30;52.40;;;;;;5135034;27;20277;-67
2022/05/01 13:29:25;;;;;;;6.77;2.70;;;15.30;52.10;;;;;;5134371;27;20340;-68
2022/05/01 13:31:51;;;;;;;4.67;2.73;;;15.30;52.30;;;;;;5134584;27;20276;-67